Time;durP1;ratioP1;P1;durP2;ratioP2;P2;SDS_P1;SDS_P2;PMS_P1;PMS_P2;Temp;Humidity;BMP_temperature;BMP_pressure;BME280_temperature;BME280_humidity;BME280_pressure;Samples;Min_cycle;Max_cycle;Signal;HPM_P1;HPM_P2
2022/03/04 00:02:09;;;;;;;;;;;1.50;99.90;;;;;;5015615;28;19921;-73
2022/03/04 00:04:37;;;;;;;;;;;1.50;99.90;;;;;;5016351;28;19928;-72
2022/03/04 00:07:03;;;;;;;;;;;1.50;99.90;;;;;;5014996;28;19921;-72
2022/03/04 00:09:28;;;;;;;;;;;1.50;99.90;;;;;;5015864;28;20327;-72
2022/03/04 00:11:54;;;;;;;;;;;1.50;99.90;;;;;;5014073;28;19921;-73
2022/03/04 00:14:20;;;;;;;;;;;1.50;99.90;;;;;;5014537;28;19922;-73
2022/03/04 00:16:45;;;;;;;;;;;1.40;99.90;;;;;;5014389;28;19921;-73
2022/03/04 00:19:11;;;;;;;;;;;1.40;99.90;;;;;;5015645;28;20289;-72
2022/03/04 00:21:42;;;;;;;;;;;1.40;99.90;;;;;;5014250;28;19972;-73
2022/03/04 00:24:08;;;;;;;;;;;1.40;99.90;;;;;;5013760;28;19921;-73
2022/03/04 00:26:34;;;;;;;;;;;1.50;99.90;;;;;;5016766;28;19922;-74
2022/03/04 00:29:00;;;;;;;;;;;1.50;99.90;;;;;;5015600;28;20069;-73
2022/03/04 00:31:25;;;;;;;;;;;1.40;99.90;;;;;;5013308;28;19957;-73
2022/03/04 00:33:51;;;;;;;;;;;1.40;99.90;;;;;;5015333;28;20387;-73
2022/03/04 00:36:17;;;;;;;;;;;1.50;99.90;;;;;;5013954;28;19921;-73
2022/03/04 00:38:42;;;;;;;;;;;1.50;99.90;;;;;;5014766;28;19921;-73
2022/03/04 00:41:08;;;;;;;;;;;1.50;99.90;;;;;;5014985;28;19972;-73
2022/03/04 00:43:33;;;;;;;;;;;1.40;99.90;;;;;;5014017;28;20024;-74
2022/03/04 00:46:02;;;;;;;;;;;1.50;99.90;;;;;;5014828;28;20365;-74
2022/03/04 00:48:28;;;;;;;;;;;1.40;99.90;;;;;;5014629;28;19996;-74
2022/03/04 00:50:53;;;;;;;;;;;1.40;99.90;;;;;;5030676;28;20021;-74
2022/03/04 00:53:19;;;;;;;;;;;1.50;99.90;;;;;;5034123;28;20347;-73
2022/03/04 00:55:44;;;;;;;;;;;1.50;99.90;;;;;;5018066;28;19921;-72
2022/03/04 00:58:10;;;;;;;;;;;1.50;99.90;;;;;;5016816;28;19925;-73
2022/03/04 01:00:36;;;;;;;;;;;1.40;99.90;;;;;;5034355;28;19921;-73
2022/03/04 01:03:02;;;;;;;;;;;1.40;99.90;;;;;;5017145;28;20324;-73
2022/03/04 01:05:30;;;;;;;;;;;1.30;99.90;;;;;;5034937;28;19921;-73
2022/03/04 01:07:56;;;;;;;;;;;1.30;99.90;;;;;;5016114;28;19928;-73
2022/03/04 01:10:22;;;;;;;;;;;1.30;99.90;;;;;;5016371;28;20347;-73
2022/03/04 01:12:47;;;;;;;;;;;1.30;99.90;;;;;;5035219;28;20293;-73
2022/03/04 01:15:13;;;;;;;;;;;1.30;99.90;;;;;;5015754;28;19970;-73
2022/03/04 01:17:39;;;;;;;;;;;1.20;99.90;;;;;;5034262;28;19921;-73
2022/03/04 01:20:05;;;;;;;;;;;1.20;99.90;;;;;;5033556;28;19943;-73
2022/03/04 01:22:31;;;;;;;;;;;1.20;99.90;;;;;;5017479;28;19947;-73
2022/03/04 01:24:56;;;;;;;;;;;1.20;99.90;;;;;;5016351;28;19925;-73
2022/03/04 01:27:22;;;;;;;;;;;1.20;99.90;;;;;;5015606;28;19925;-73
2022/03/04 01:29:47;;;;;;;;;;;1.10;99.90;;;;;;5016345;28;19921;-73
2022/03/04 01:32:13;;;;;;;;;;;1.10;99.90;;;;;;5025619;28;19924;-72
2022/03/04 01:34:39;;;;;;;;;;;1.10;99.90;;;;;;5053320;28;20363;-72
2022/03/04 01:37:05;;;;;;;;;;;1.10;99.90;;;;;;5053695;28;19921;-72
2022/03/04 01:39:30;;;;;;;;;;;1.00;99.90;;;;;;5053892;28;19921;-72
2022/03/04 01:41:56;;;;;;;;;;;1.60;99.90;;;;;;5053331;28;20291;-73
2022/03/04 01:44:24;;;;;;;;;;;1.00;99.90;;;;;;5053418;28;19939;-73
2022/03/04 01:46:50;;;;;;;;;;;0.90;99.90;;;;;;5032838;28;20282;-73
2022/03/04 01:49:16;;;;;;;;;;;0.90;99.90;;;;;;5015235;28;19927;-73
2022/03/04 01:51:41;;;;;;;;;;;0.80;99.90;;;;;;5033650;28;19925;-73
2022/03/04 01:54:07;;;;;;;;;;;0.80;99.90;;;;;;5015798;28;19960;-73
2022/03/04 01:56:32;;;;;;;;;;;0.80;99.90;;;;;;5015736;28;19921;-73
2022/03/04 01:58:58;;;;;;;;;;;0.70;99.90;;;;;;5016139;28;19921;-73
2022/03/04 02:01:23;;;;;;;;;;;0.70;99.90;;;;;;5033150;28;19936;-73
2022/03/04 02:03:49;;;;;;;;;;;0.70;99.90;;;;;;5016462;28;19928;-73
2022/03/04 02:06:15;;;;;;;;;;;0.70;99.90;;;;;;5015431;28;19968;-73
2022/03/04 02:08:40;;;;;;;;;;;0.60;99.90;;;;;;5033242;28;20269;-73
2022/03/04 02:11:06;;;;;;;;;;;0.60;99.90;;;;;;5032614;28;19936;-73
2022/03/04 02:13:32;;;;;;;;;;;0.60;99.90;;;;;;5033516;28;19968;-73
2022/03/04 02:15:58;;;;;;;;;;;0.50;99.90;;;;;;5015528;28;20341;-72
2022/03/04 02:18:23;;;;;;;;;;;0.50;99.90;;;;;;5015998;28;20326;-73
2022/03/04 02:20:53;;;;;;;;;;;0.50;99.90;;;;;;5033222;28;19921;-73
2022/03/04 02:23:19;;;;;;;;;;;0.40;99.90;;;;;;5032667;28;19921;-73
2022/03/04 02:25:48;;;;;;;;;;;0.40;99.90;;;;;;5015479;28;19971;-73
2022/03/04 02:28:13;;;;;;;;;;;0.30;99.90;;;;;;5032703;28;19928;-73
2022/03/04 02:30:42;;;;;;;;;;;0.30;99.90;;;;;;5014595;28;19925;-73
2022/03/04 02:33:07;;;;;;;;;;;0.20;99.90;;;;;;5016283;28;19921;-73
2022/03/04 02:35:34;;;;;;;;;;;0.20;99.90;;;;;;5015483;28;19996;-73
2022/03/04 02:38:00;;;;;;;;;;;0.20;99.90;;;;;;5032149;28;19921;-73
2022/03/04 02:40:25;;;;;;;;;;;0.10;99.90;;;;;;5015001;28;20011;-73
2022/03/04 02:42:51;;;;;;;;;;;0.10;99.90;;;;;;5015529;28;20418;-73
2022/03/04 02:45:17;;;;;;;;;;;0.10;99.90;;;;;;5032099;28;19928;-73
2022/03/04 02:47:42;;;;;;;;;;;0.10;99.90;;;;;;5033723;28;20031;-73
2022/03/04 02:50:08;;;;;;;;;;;0.00;99.90;;;;;;5014511;28;19924;-73
2022/03/04 02:52:34;;;;;;;;;;;0.00;99.90;;;;;;5014621;28;19988;-73
2022/03/04 02:54:59;;;;;;;;;;;0.00;99.90;;;;;;5015251;28;19928;-73
2022/03/04 02:57:25;;;;;;;;;;;0.00;99.90;;;;;;5032383;28;19921;-73
2022/03/04 02:59:50;;;;;;;;;;;0.00;99.90;;;;;;5022295;28;19963;-73
2022/03/04 03:02:16;;;;;;;;;;;-0.10;99.90;;;;;;5023702;28;19951;-73
2022/03/04 03:04:41;;;;;;;;;;;-0.10;99.90;;;;;;5022762;28;19924;-73
2022/03/04 03:07:07;;;;;;;;;;;-0.10;99.90;;;;;;5024344;28;19925;-73
2022/03/04 03:09:32;;;;;;;;;;;-0.10;99.90;;;;;;5020370;28;20011;-73
2022/03/04 03:11:58;;;;;;;;;;;-0.10;99.90;;;;;;5024783;28;19921;-73
2022/03/04 03:14:23;;;;;;;;;;;-0.10;99.90;;;;;;5038753;28;19925;-73
2022/03/04 03:16:49;;;;;;;;;;;-0.10;99.90;;;;;;5039905;28;19921;-73
2022/03/04 03:19:17;;;;;;;;;;;-0.10;99.90;;;;;;5038412;28;19921;-73
2022/03/04 03:21:42;;;;;;;;;;;0.10;99.90;;;;;;5044932;28;19921;-73
2022/03/04 03:24:08;;;;;;;;;;;-0.10;99.90;;;;;;5052055;28;19921;-73
2022/03/04 03:26:34;;;;;;;;;;;-0.10;99.90;;;;;;5033872;28;19921;-73
2022/03/04 03:28:59;;;;;;;;;;;-0.10;99.90;;;;;;5050170;28;19971;-73
2022/03/04 03:31:25;;;;;;;;;;;-0.20;99.90;;;;;;5033914;28;19921;-73
2022/03/04 03:33:50;;;;;;;;;;;-0.20;99.90;;;;;;5033973;28;19932;-73
2022/03/04 03:36:16;;;;;;;;;;;-0.20;99.90;;;;;;5033863;28;20011;-73
2022/03/04 03:38:42;;;;;;;;;;;-0.30;99.90;;;;;;5043028;28;19931;-73
2022/03/04 03:41:07;;;;;;;;;;;-0.30;99.90;;;;;;5023261;28;19936;-73
2022/03/04 03:43:33;;;;;;;;;;;-0.30;99.90;;;;;;5044800;28;19925;-73
2022/03/04 03:45:58;;;;;;;;;;;-0.40;99.90;;;;;;5043025;28;20364;-73
2022/03/04 03:48:24;;;;;;;;;;;-0.40;99.90;;;;;;5041209;28;19920;-73
2022/03/04 03:50:49;;;;;;;;;;;-0.40;99.90;;;;;;5035640;28;20391;-73
2022/03/04 03:53:15;;;;;;;;;;;-0.50;99.90;;;;;;5018230;28;19921;-73
2022/03/04 03:55:40;;;;;;;;;;;-0.50;99.90;;;;;;5019052;28;19921;-73
2022/03/04 03:58:06;;;;;;;;;;;-0.60;99.90;;;;;;5017886;28;19921;-73
2022/03/04 04:00:31;;;;;;;;;;;-0.60;99.90;;;;;;5051095;28;19936;-73
2022/03/04 04:03:03;;;;;;;;;;;-0.60;99.90;;;;;;5017563;28;19921;-73
2022/03/04 04:05:31;;;;;;;;;;;-0.70;99.90;;;;;;5026093;28;20007;-73
2022/03/04 04:07:57;;;;;;;;;;;-0.70;99.90;;;;;;5029072;28;19924;-73
2022/03/04 04:10:22;;;;;;;;;;;-0.70;99.90;;;;;;5044015;28;20404;-73
2022/03/04 04:12:48;;;;;;;;;;;-0.70;99.90;;;;;;5038451;28;19921;-73
2022/03/04 04:15:13;;;;;;;;;;;-0.70;99.90;;;;;;5017769;28;20365;-73
2022/03/04 04:17:39;;;;;;;;;;;-0.70;99.90;;;;;;5034880;28;20261;-73
2022/03/04 04:20:06;;;;;;;;;;;-0.70;99.90;;;;;;5038110;28;20031;-73
2022/03/04 04:22:31;;;;;;;;;;;-0.60;99.90;;;;;;5017594;28;20369;-73
2022/03/04 04:24:57;;;;;;;;;;;-0.60;99.90;;;;;;5018015;28;19928;-73
2022/03/04 04:27:22;;;;;;;;;;;-0.60;99.90;;;;;;5018416;28;19933;-73
2022/03/04 04:29:48;;;;;;;;;;;-0.60;99.90;;;;;;5017076;28;19928;-73
2022/03/04 04:32:13;;;;;;;;;;;-0.60;99.90;;;;;;5034620;28;20249;-72
2022/03/04 04:34:39;;;;;;;;;;;-0.60;99.90;;;;;;5036437;28;19921;-72
2022/03/04 04:37:04;;;;;;;;;;;-0.60;99.90;;;;;;5023430;28;19927;-73
2022/03/04 04:39:29;;;;;;;;;;;-0.60;99.90;;;;;;5034698;28;19924;-73
2022/03/04 04:41:55;;;;;;;;;;;-0.50;99.90;;;;;;5051549;28;19925;-73
2022/03/04 04:44:20;;;;;;;;;;;-0.60;99.90;;;;;;5031895;28;20474;-73
2022/03/04 04:46:46;;;;;;;;;;;-0.60;99.90;;;;;;5016355;28;19927;-72
2022/03/04 04:49:11;;;;;;;;;;;-0.60;99.90;;;;;;5016191;28;19932;-73
2022/03/04 04:51:37;;;;;;;;;;;-0.60;99.90;;;;;;5014164;28;19972;-73
2022/03/04 04:54:03;;;;;;;;;;;-0.60;99.90;;;;;;5032550;28;19960;-73
2022/03/04 04:56:28;;;;;;;;;;;-0.60;99.90;;;;;;5032710;28;19975;-74
2022/03/04 04:58:54;;;;;;;;;;;-0.90;99.90;;;;;;5032201;28;20355;-74
2022/03/04 05:01:20;;;;;;;;;;;-0.70;99.90;;;;;;5015963;28;19921;-72
2022/03/04 05:03:45;;;;;;;;;;;-0.60;99.90;;;;;;5015280;28;19974;-71
2022/03/04 05:06:11;;;;;;;;;;;-0.70;99.90;;;;;;5015237;28;20349;-71
2022/03/04 05:08:37;;;;;;;;;;;-0.70;99.90;;;;;;5034411;28;20059;-72
2022/03/04 05:11:02;;;;;;;;;;;-0.70;99.90;;;;;;5034330;28;20269;-71
2022/03/04 05:13:28;;;;;;;;;;;-0.80;99.90;;;;;;5016189;28;19921;-72
2022/03/04 05:15:53;;;;;;;;;;;-0.70;99.90;;;;;;5035665;28;19929;-72
2022/03/04 05:18:19;;;;;;;;;;;-0.80;99.90;;;;;;5016389;28;20383;-72
2022/03/04 05:20:44;;;;;;;;;;;-0.80;99.90;;;;;;5015891;28;19993;-74
2022/03/04 05:23:10;;;;;;;;;;;-0.90;99.90;;;;;;5016251;28;20292;-74
2022/03/04 05:25:35;;;;;;;;;;;-0.90;99.90;;;;;;5034482;28;20325;-74
2022/03/04 05:28:02;;;;;;;;;;;-0.90;99.90;;;;;;5016176;28;20384;-74
2022/03/04 05:30:28;;;;;;;;;;;-0.90;99.90;;;;;;5034765;28;19921;-74
2022/03/04 05:32:53;;;;;;;;;;;-1.00;99.90;;;;;;5016580;28;20336;-74
2022/03/04 05:35:19;;;;;;;;;;;-1.00;99.90;;;;;;5015704;28;19929;-74
2022/03/04 05:37:44;;;;;;;;;;;-0.30;99.90;;;;;;5016289;28;20380;-73
2022/03/04 05:40:10;;;;;;;;;;;-1.00;99.90;;;;;;5015592;28;19920;-74
2022/03/04 05:42:36;;;;;;;;;;;0.10;99.90;;;;;;5017200;28;20015;-74
2022/03/04 05:45:02;;;;;;;;;;;-1.10;99.90;;;;;;5016156;28;20011;-74
2022/03/04 05:47:27;;;;;;;;;;;-1.10;99.90;;;;;;5015847;28;19927;-74
2022/03/04 05:49:53;;;;;;;;;;;-1.10;99.90;;;;;;5016120;28;19921;-73
2022/03/04 05:52:18;;;;;;;;;;;0.30;99.90;;;;;;5034320;28;20269;-73
2022/03/04 05:54:44;;;;;;;;;;;-1.20;99.90;;;;;;5033021;28;19917;-73
2022/03/04 05:57:10;;;;;;;;;;;-1.00;99.90;;;;;;5033416;28;19921;-73
2022/03/04 05:59:35;;;;;;;;;;;-1.00;99.90;;;;;;5033614;28;19917;-73
2022/03/04 06:02:01;;;;;;;;;;;-1.30;99.90;;;;;;5015290;28;19925;-74
2022/03/04 06:04:26;;;;;;;;;;;-1.40;99.90;;;;;;5039367;28;19921;-73
2022/03/04 06:06:52;;;;;;;;;;;-1.30;99.90;;;;;;5037935;28;19975;-74
2022/03/04 06:09:17;;;;;;;;;;;-1.20;99.90;;;;;;5014491;28;20324;-74
2022/03/04 06:11:45;;;;;;;;;;;-1.30;99.90;;;;;;5014933;28;20031;-73
2022/03/04 06:14:10;;;;;;;;;;;-1.30;99.90;;;;;;5033504;28;19925;-73
2022/03/04 06:16:36;;;;;;;;;;;-1.20;99.90;;;;;;5043963;28;19921;-72
2022/03/04 06:19:02;;;;;;;;;;;-1.20;99.90;;;;;;5033190;28;19925;-73
2022/03/04 06:21:27;;;;;;;;;;;-1.20;99.90;;;;;;5043526;28;20364;-76
2022/03/04 06:23:53;;;;;;;;;;;-1.20;99.90;;;;;;5051855;28;19925;-71
2022/03/04 06:26:20;;;;;;;;;;;-1.20;99.90;;;;;;5014837;28;19925;-74
2022/03/04 06:28:47;;;;;;;;;;;-1.20;99.90;;;;;;5032763;28;20053;-76
2022/03/04 06:31:15;;;;;;;;;;;-1.10;99.90;;;;;;5014172;28;20019;-77
2022/03/04 06:33:42;;;;;;;;;;;-1.20;99.90;;;;;;5033796;28;20008;-78
2022/03/04 06:36:10;;;;;;;;;;;-1.10;99.90;;;;;;5031868;28;19936;-78
2022/03/04 06:38:38;;;;;;;;;;;-1.10;99.90;;;;;;5031962;28;19920;-74
2022/03/04 06:41:04;;;;;;;;;;;-1.10;99.90;;;;;;5048527;28;20015;-74
2022/03/04 06:43:29;;;;;;;;;;;-1.10;99.90;;;;;;5035577;28;20387;-78
2022/03/04 06:45:55;;;;;;;;;;;-1.10;99.90;;;;;;5045447;28;20392;-83
2022/03/04 06:48:23;;;;;;;;;;;-1.10;99.90;;;;;;5037745;28;20304;-77
2022/03/04 06:50:49;;;;;;;;;;;-1.10;99.90;;;;;;5013377;28;19928;-76
2022/03/04 06:53:18;;;;;;;;;;;-0.80;99.90;;;;;;5028908;28;19928;-79
2022/03/04 06:55:44;;;;;;;;;;;-1.00;99.90;;;;;;5018238;28;19925;-80
2022/03/04 06:58:10;;;;;;;;;;;-1.10;99.90;;;;;;5024779;28;19924;-80
2022/03/04 07:00:36;;;;;;;;;;;-1.10;99.90;;;;;;5012213;28;19976;-79
2022/03/04 07:03:01;;;;;;;;;;;-1.10;99.90;;;;;;5013911;28;19975;-78
2022/03/04 07:05:27;;;;;;;;;;;-1.10;99.90;;;;;;5029481;28;19931;-76
2022/03/04 07:07:53;;;;;;;;;;;-1.10;99.90;;;;;;5020648;28;19927;-79
2022/03/04 07:10:19;;;;;;;;;;;-0.90;99.90;;;;;;5051825;28;19921;-80
2022/03/04 07:12:45;;;;;;;;;;;-1.00;99.90;;;;;;5039098;28;19921;-78
2022/03/04 07:15:11;;;;;;;;;;;-1.00;99.90;;;;;;5049418;28;19928;-78
2022/03/04 07:17:36;;;;;;;;;;;-0.90;99.90;;;;;;5029984;28;20269;-77
2022/03/04 07:20:02;;;;;;;;;;;-0.80;99.90;;;;;;5021465;28;20011;-79
2022/03/04 07:22:28;;;;;;;;;;;-0.80;99.90;;;;;;5051915;28;19947;-79
2022/03/04 07:24:53;;;;;;;;;;;-0.70;99.90;;;;;;5021890;28;19921;-77
2022/03/04 07:27:19;;;;;;;;;;;-0.70;99.90;;;;;;5053817;28;19921;-79
2022/03/04 07:29:44;;;;;;;;;;;-0.70;99.90;;;;;;5032030;28;20411;-79
2022/03/04 07:32:10;;;;;;;;;;;-0.70;99.90;;;;;;5026406;28;19969;-83
2022/03/04 07:34:35;;;;;;;;;;;-0.70;99.90;;;;;;5036243;28;19920;-79
2022/03/04 07:37:01;;;;;;;;;;;-0.50;99.90;;;;;;5022257;28;19921;-79
2022/03/04 07:39:27;;;;;;;;;;;-0.50;99.90;;;;;;5033906;28;19925;-82
2022/03/04 07:41:52;;;;;;;;;;;-0.50;99.90;;;;;;5024191;28;20272;-81
2022/03/04 07:44:18;;;;;;;;;;;-0.50;99.90;;;;;;5048459;28;19928;-84
2022/03/04 07:46:44;;;;;;;;;;;-0.40;99.90;;;;;;5029426;28;20241;-80
2022/03/04 07:49:09;;;;;;;;;;;-0.50;99.90;;;;;;5023160;28;19928;-81
2022/03/04 07:51:35;;;;;;;;;;;-0.40;99.90;;;;;;5037702;28;20014;-81
2022/03/04 07:54:01;;;;;;;;;;;-0.30;99.90;;;;;;5047525;28;19924;-80
2022/03/04 07:56:26;;;;;;;;;;;-0.30;99.90;;;;;;5044460;28;19929;-78
2022/03/04 07:58:52;;;;;;;;;;;-0.20;99.90;;;;;;5029433;28;19925;-78
2022/03/04 08:01:18;;;;;;;;;;;-0.30;99.90;;;;;;5019900;28;19929;-77
2022/03/04 08:03:43;;;;;;;;;;;-0.20;99.90;;;;;;5049675;28;19925;-79
2022/03/04 08:06:09;;;;;;;;;;;-0.10;99.90;;;;;;5025896;28;19982;-77
2022/03/04 08:08:35;;;;;;;;;;;-0.10;99.90;;;;;;5025517;28;19971;-85
2022/03/04 08:11:01;;;;;;;;;;;0.00;99.90;;;;;;5030949;28;19943;-78
2022/03/04 08:13:26;;;;;;;;;;;0.10;99.90;;;;;;5015209;28;19943;-83
2022/03/04 08:15:52;;;;;;;;;;;0.20;99.90;;;;;;5045933;28;19986;-73
2022/03/04 08:18:17;;;;;;;;;;;0.10;99.90;;;;;;5054331;28;19928;-74
2022/03/04 08:20:43;;;;;;;;;;;0.20;99.90;;;;;;5053364;28;19975;-73
2022/03/04 08:23:10;;;;;;;;;;;0.30;99.90;;;;;;5019811;28;19925;-78
2022/03/04 08:25:36;;;;;;;;;;;0.40;99.90;;;;;;5032613;28;19956;-73
2022/03/04 08:28:01;;;;;;;;;;;0.50;99.90;;;;;;5024471;28;19996;-74
2022/03/04 08:30:27;;;;;;;;;;;0.50;99.90;;;;;;5027704;28;19960;-75
2022/03/04 08:32:53;;;;;;;;;;;0.50;99.90;;;;;;5039887;28;19955;-75
2022/03/04 08:35:18;;;;;;;;;;;0.50;99.90;;;;;;5049233;28;19928;-77
2022/03/04 08:37:44;;;;;;;;;;;0.60;99.90;;;;;;5030652;28;19963;-82
2022/03/04 08:40:10;;;;;;;;;;;0.50;99.90;;;;;;5027231;28;20285;-74
2022/03/04 08:42:39;;;;;;;;;;;0.60;99.90;;;;;;5047607;28;19967;-73
2022/03/04 08:45:05;;;;;;;;;;;0.60;99.90;;;;;;5037136;28;19921;-75
2022/03/04 08:47:30;;;;;;;;;;;0.60;99.90;;;;;;5051197;28;19921;-75
2022/03/04 08:49:56;;;;;;;;;;;0.60;99.90;;;;;;5020290;28;20442;-76
2022/03/04 08:52:21;;;;;;;;;;;0.70;99.90;;;;;;5015222;28;19932;-74
2022/03/04 08:54:47;;;;;;;;;;;0.60;99.90;;;;;;5014847;28;19948;-74
2022/03/04 08:57:13;;;;;;;;;;;0.60;99.90;;;;;;5013865;28;19973;-74
2022/03/04 08:59:41;;;;;;;;;;;0.80;99.90;;;;;;5013459;28;19932;-74
2022/03/04 09:02:07;;;;;;;;;;;0.70;99.90;;;;;;5032245;28;20311;-73
2022/03/04 09:04:32;;;;;;;;;;;0.60;99.90;;;;;;5032144;28;19925;-74
2022/03/04 09:06:58;;;;;;;;;;;0.60;99.90;;;;;;5034048;28;20347;-72
2022/03/04 09:09:24;;;;;;;;;;;0.60;99.90;;;;;;5032296;28;19916;-73
2022/03/04 09:11:49;;;;;;;;;;;0.70;99.90;;;;;;5029796;28;20000;-73
2022/03/04 09:14:19;;;;;;;;;;;0.70;99.90;;;;;;5032045;28;19972;-74
2022/03/04 09:16:45;;;;;;;;;;;0.80;99.90;;;;;;5031047;28;19917;-74
2022/03/04 09:19:11;;;;;;;;;;;0.90;99.90;;;;;;5033226;28;20008;-77
2022/03/04 09:21:36;;;;;;;;;;;0.90;99.90;;;;;;5032839;28;19971;-75
2022/03/04 09:24:04;;;;;;;;;;;1.00;99.90;;;;;;5032882;28;19925;-79
2022/03/04 09:26:30;;;;;;;;;;;1.20;99.90;;;;;;5033193;28;19963;-75
2022/03/04 09:28:58;;;;;;;;;;;1.30;99.90;;;;;;5031080;28;19968;-72
2022/03/04 09:31:24;;;;;;;;;;;1.40;99.90;;;;;;5032169;28;20349;-71
2022/03/04 09:36:36;;;;;;;;;;;1.50;99.90;;;;;;5017644;28;19921;-74
2022/03/04 09:39:02;;;;;;;;;;;1.60;99.90;;;;;;5032794;28;19923;-74
2022/03/04 09:41:28;;;;;;;;;;;1.80;99.90;;;;;;5029770;28;19921;-74
2022/03/04 09:43:55;;;;;;;;;;;2.00;99.90;;;;;;5012881;28;19928;-77
2022/03/04 09:46:23;;;;;;;;;;;2.70;99.90;;;;;;5012525;28;20424;-83
2022/03/04 09:48:50;;;;;;;;;;;3.90;99.90;;;;;;5013107;28;20013;-79
2022/03/04 09:51:16;;;;;;;;;;;5.10;99.90;;;;;;5032012;28;19987;-76
2022/03/04 09:53:41;;;;;;;;;;;6.40;99.90;;;;;;5016590;28;20586;-82
2022/03/04 09:56:10;;;;;;;;;;;7.80;99.90;;;;;;5033342;28;20016;-85
2022/03/04 09:58:37;;;;;;;;;;;7.80;99.90;;;;;;5049274;28;20024;-84
2022/03/04 10:01:08;;;;;;;;;;;7.20;99.90;;;;;;5015639;28;19936;-84
2022/03/04 10:03:33;;;;;;;;;;;6.50;99.90;;;;;;5016870;28;19944;-83
2022/03/04 10:06:00;;;;;;;;;;;6.10;99.90;;;;;;5048755;28;20304;-83
2022/03/04 10:08:25;;;;;;;;;;;5.90;99.90;;;;;;5015261;28;19921;-85
2022/03/04 10:10:52;;;;;;;;;;;6.30;99.90;;;;;;5015520;28;19928;-84
2022/03/04 10:13:18;;;;;;;;;;;6.90;99.90;;;;;;5033739;28;19925;-82
2022/03/04 10:15:54;;;;;;;;;;;7.80;99.90;;;;;;5015098;28;20026;-82
2022/03/04 10:18:29;;;;;;;;;;;8.20;99.90;;;;;;5016098;28;20338;-78
2022/03/04 10:20:55;;;;;;;;;;;8.90;99.90;;;;;;5015649;28;19921;-78
2022/03/04 10:23:22;;;;;;;;;;;9.50;99.90;;;;;;5031931;28;20056;-79
2022/03/04 10:25:49;;;;;;;;;;;10.50;99.90;;;;;;5015728;28;20406;-78
2022/03/04 10:28:15;;;;;;;;;;;11.60;99.90;;;;;;5016006;28;19923;-79
2022/03/04 10:30:48;;;;;;;;;;;11.80;99.90;;;;;;5014848;28;19921;-79
2022/03/04 10:33:15;;;;;;;;;;;12.30;99.90;;;;;;5015360;28;19971;-79
2022/03/04 10:35:41;;;;;;;;;;;12.20;97.90;;;;;;5015188;28;19979;-79
2022/03/04 10:38:16;;;;;;;;;;;12.40;97.70;;;;;;5015230;28;20365;-79
2022/03/04 10:40:44;;;;;;;;;;;13.50;96.20;;;;;;5015290;28;19948;-79
2022/03/04 10:43:11;;;;;;;;;;;14.50;97.20;;;;;;5014555;28;19921;-80
2022/03/04 10:45:40;;;;;;;;;;;14.80;94.60;;;;;;5016402;28;19921;-80
2022/03/04 10:48:13;;;;;;;;;;;15.40;95.80;;;;;;5015050;28;19924;-78
2022/03/04 10:50:42;;;;;;;;;;;15.20;94.10;;;;;;5011233;28;19925;-78
2022/03/04 10:53:08;;;;;;;;;;;15.20;92.70;;;;;;5011720;28;20435;-78
2022/03/04 10:55:34;;;;;;;;;;;15.40;91.60;;;;;;5012346;28;20281;-78
2022/03/04 10:58:01;;;;;;;;;;;15.50;92.50;;;;;;5011037;28;19954;-78
2022/03/04 11:00:36;;;;;;;;;;;15.80;91.80;;;;;;5012631;28;19921;-79
2022/03/04 11:03:05;;;;;;;;;;;15.40;88.40;;;;;;5011807;28;20354;-79
2022/03/04 11:05:34;;;;;;;;;;;15.50;92.10;;;;;;5011194;28;20436;-79
2022/03/04 11:08:00;;;;;;;;;;;15.50;92.00;;;;;;5014426;28;19921;-79
2022/03/04 11:10:26;;;;;;;;;;;15.60;89.80;;;;;;5022553;28;19972;-77
2022/03/04 11:12:53;;;;;;;;;;;15.50;90.00;;;;;;5011098;28;19921;-76
2022/03/04 11:15:20;;;;;;;;;;;15.50;89.20;;;;;;5023555;28;20011;-77
2022/03/04 11:17:46;;;;;;;;;;;16.40;90.20;;;;;;5030929;28;19920;-78
2022/03/04 11:20:12;;;;;;;;;;;16.00;88.10;;;;;;5028864;28;19921;-78
2022/03/04 11:22:39;;;;;;;;;;;16.20;90.30;;;;;;5013305;28;19989;-77
2022/03/04 11:25:06;;;;;;;;;;;16.10;84.20;;;;;;5011019;28;19988;-75
2022/03/04 11:27:49;;;;;;;;;;;15.90;86.50;;;;;;5019335;28;19921;-74
2022/03/04 11:30:37;;;;;;;;;;;16.30;86.10;;;;;;5012435;28;19917;-72
2022/03/04 11:33:15;;;;;;;;;;;16.80;82.10;;;;;;5012353;28;19926;-73
2022/03/04 11:35:40;;;;;;;;;;;16.30;75.90;;;;;;5012865;28;20287;-74
2022/03/04 11:38:09;;;;;;;;;;;15.90;78.10;;;;;;5012300;28;19923;-75
2022/03/04 11:40:35;;;;;;;;;;;15.90;82.30;;;;;;5011088;28;19929;-73
2022/03/04 11:43:02;;;;;;;;;;;16.00;87.70;;;;;;5011609;28;19921;-77
2022/03/04 11:45:29;;;;;;;;;;;15.90;79.30;;;;;;5018281;28;19921;-73
2022/03/04 11:48:01;;;;;;;;;;;15.80;82.50;;;;;;5021286;28;19936;-76
2022/03/04 11:50:29;;;;;;;;;;;15.80;83.60;;;;;;5010874;28;19921;-73
2022/03/04 11:53:10;;;;;;;;;;;15.70;83.20;;;;;;5010650;28;19972;-75
2022/03/04 11:55:35;;;;;;;;;;;15.30;89.80;;;;;;5011301;28;20384;-75
2022/03/04 11:58:07;;;;;;;;;;;15.80;90.30;;;;;;5011387;28;19922;-74
2022/03/04 12:00:34;;;;;;;;;;;16.20;88.20;;;;;;5010883;28;19925;-76
2022/03/04 12:03:09;;;;;;;;;;;16.50;85.10;;;;;;5020752;28;19944;-77
2022/03/04 12:05:38;;;;;;;;;;;16.30;83.60;;;;;;5011835;28;19921;-76
2022/03/04 12:08:03;;;;;;;;;;;15.90;85.10;;;;;;5024168;28;20424;-76
2022/03/04 12:10:37;;;;;;;;;;;16.80;84.00;;;;;;5024595;28;20015;-77
2022/03/04 12:13:03;;;;;;;;;;;17.30;85.90;;;;;;5035030;28;19925;-76
2022/03/04 12:15:29;;;;;;;;;;;17.80;82.10;;;;;;5035099;28;19925;-79
2022/03/04 12:18:04;;;;;;;;;;;17.70;75.90;;;;;;5031365;28;20703;-75
2022/03/04 12:20:30;;;;;;;;;;;18.00;77.20;;;;;;5032824;28;19921;-75
2022/03/04 12:22:59;;;;;;;;;;;18.30;73.90;;;;;;5030999;28;20432;-76
2022/03/04 12:25:45;;;;;;;;;;;17.90;69.60;;;;;;5017551;28;19921;-75
2022/03/04 12:28:15;;;;;;;;;;;18.00;73.20;;;;;;5013535;28;19929;-74
2022/03/04 12:30:40;;;;;;;;;;;17.90;69.80;;;;;;5029431;28;20368;-74
2022/03/04 12:33:06;;;;;;;;;;;17.70;63.70;;;;;;5034549;28;20015;-73
2022/03/04 12:35:32;;;;;;;;;;;17.10;72.50;;;;;;5033335;28;20388;-74
2022/03/04 12:38:00;;;;;;;;;;;17.40;74.80;;;;;;5028381;28;19925;-74
2022/03/04 12:40:25;;;;;;;;;;;18.30;76.20;;;;;;5025682;28;19921;-75
2022/03/04 12:42:54;;;;;;;;;;;17.00;72.20;;;;;;5024885;28;19921;-74
2022/03/04 12:45:23;;;;;;;;;;;17.30;72.30;;;;;;5025479;28;19925;-73
2022/03/04 12:47:49;;;;;;;;;;;17.20;71.80;;;;;;5022390;28;19921;-73
2022/03/04 12:50:15;;;;;;;;;;;16.80;74.80;;;;;;5032429;28;19921;-74
2022/03/04 12:52:40;;;;;;;;;;;16.80;70.60;;;;;;5033138;28;19932;-73
2022/03/04 12:55:08;;;;;;;;;;;16.80;82.80;;;;;;5033299;28;19917;-75
2022/03/04 12:57:34;;;;;;;;;;;16.80;72.40;;;;;;5032965;28;19968;-73
2022/03/04 13:00:00;;;;;;;;;;;16.60;71.60;;;;;;5016565;28;19925;-74
2022/03/04 13:02:35;;;;;;;;;;;16.10;72.10;;;;;;5012932;28;19917;-73
2022/03/04 13:05:02;;;;;;;;;;;16.20;78.20;;;;;;5012807;28;20008;-73
2022/03/04 13:07:28;;;;;;;;;;;16.70;79.10;;;;;;5013286;28;20300;-76
2022/03/04 13:09:55;;;;;;;;;;;16.20;79.50;;;;;;5026768;28;20023;-76
2022/03/04 13:12:22;;;;;;;;;;;17.20;79.80;;;;;;5029093;28;19979;-73
2022/03/04 13:14:48;;;;;;;;;;;16.10;81.90;;;;;;5022383;28;19944;-74
2022/03/04 13:17:14;;;;;;;;;;;16.00;75.60;;;;;;5023994;28;19967;-73
2022/03/04 13:19:40;;;;;;;;;;;15.50;75.40;;;;;;5017843;28;20328;-74
2022/03/04 13:22:06;;;;;;;;;;;15.40;86.20;;;;;;5018244;28;19968;-74
2022/03/04 13:24:33;;;;;;;;;;;14.40;88.30;;;;;;5020789;28;20418;-75
2022/03/04 13:26:58;;;;;;;;;;;14.20;88.80;;;;;;5017885;28;19954;-80
2022/03/04 13:29:30;;;;;;;;;;;13.80;83.80;;;;;;5030560;28;19960;-75
2022/03/04 13:32:03;;;;;;;;;;;13.30;86.50;;;;;;5022190;28;19921;-74
2022/03/04 13:34:29;;;;;;;;;;;12.60;91.00;;;;;;5027598;28;19921;-73
2022/03/04 13:36:56;;;;;;;;;;;11.90;92.80;;;;;;5017322;28;19925;-76
2022/03/04 13:39:23;;;;;;;;;;;11.50;93.90;;;;;;5012221;28;19921;-73
2022/03/04 13:42:11;;;;;;;;;;;11.20;95.30;;;;;;5012765;28;19921;-74
2022/03/04 13:44:47;;;;;;;;;;;11.00;96.40;;;;;;5014672;28;19936;-75
2022/03/04 13:47:12;;;;;;;;;;;11.10;97.00;;;;;;5018039;28;19933;-76
2022/03/04 13:49:50;;;;;;;;;;;11.10;97.70;;;;;;5017943;28;19928;-76
2022/03/04 13:52:16;;;;;;;;;;;11.10;95.60;;;;;;5014494;28;19921;-77
2022/03/04 13:54:56;;;;;;;;;;;10.80;98.20;;;;;;5014157;28;20077;-78
2022/03/04 13:57:31;;;;;;;;;;;10.90;96.80;;;;;;5015618;28;20435;-77
2022/03/04 14:00:04;;;;;;;;;;;10.80;97.00;;;;;;5017508;28;19917;-77
2022/03/04 14:02:37;;;;;;;;;;;11.00;96.20;;;;;;5033216;28;20366;-78
2022/03/04 14:05:03;;;;;;;;;;;11.00;96.20;;;;;;5016334;28;19925;-77
2022/03/04 14:07:38;;;;;;;;;;;10.80;97.10;;;;;;5028912;28;19928;-77
2022/03/04 14:10:08;;;;;;;;;;;10.90;98.60;;;;;;5035274;28;19943;-77
2022/03/04 14:12:34;;;;;;;;;;;10.60;96.40;;;;;;5035150;28;19986;-77
2022/03/04 14:14:59;;;;;;;;;;;10.50;96.70;;;;;;5026446;28;20364;-77
2022/03/04 14:17:25;;;;;;;;;;;10.30;97.90;;;;;;5046034;28;19928;-76
2022/03/04 14:19:50;;;;;;;;;;;10.20;97.30;;;;;;5035034;28;20416;-77
2022/03/04 14:22:15;;;;;;;;;;;10.30;97.90;;;;;;5034160;28;19931;-76